createdAt,value
2019-04-20T00:00:31.599Z,7.30
2019-04-20T00:01:31.996Z,3.40
2019-04-20T00:02:27.564Z,3.60
2019-04-20T00:03:34.389Z,5.30
2019-04-20T00:04:33.494Z,3.10
2019-04-20T00:05:27.578Z,3.50
2019-04-20T00:06:31.657Z,5.30
2019-04-20T00:07:32.430Z,6.30
2019-04-20T00:08:31.152Z,5.10
2019-04-20T00:09:31.291Z,3.90
2019-04-20T00:10:30.095Z,4.80
2019-04-20T00:11:39.899Z,4.80
2019-04-20T00:12:36.712Z,3.10
2019-04-20T00:13:37.882Z,4.80
2019-04-20T00:14:30.933Z,3.30
2019-04-20T00:15:28.267Z,4.50
2019-04-20T00:16:27.676Z,3.50
2019-04-20T00:17:28.579Z,5.50
2019-04-20T00:18:36.901Z,4.10
2019-04-20T00:19:35.502Z,5.50
2019-04-20T00:20:30.961Z,5.60
2019-04-20T00:21:28.951Z,5.50
2019-04-20T00:22:34.153Z,3.30
2019-04-20T00:23:33.447Z,5.30
2019-04-20T00:24:33.269Z,4.20
2019-04-20T00:25:44.312Z,3.60
2019-04-20T00:27:01.873Z,4.00
2019-04-20T00:27:50.202Z,3.30
2019-04-20T00:28:45.698Z,4.00
2019-04-20T00:29:47.948Z,5.10
2019-04-20T00:30:49.685Z,5.90
2019-04-20T00:31:43.185Z,4.90
2019-04-20T00:32:41.508Z,3.90
2019-04-20T00:33:43.600Z,4.80
2019-04-20T00:34:33.135Z,3.10
2019-04-20T00:35:29.135Z,4.60
2019-04-20T00:36:29.045Z,4.90
2019-04-20T00:37:28.031Z,3.60
2019-04-20T00:38:36.545Z,4.60
2019-04-20T00:39:28.071Z,3.50
2019-04-20T00:40:28.529Z,4.10
2019-04-20T00:41:28.106Z,5.60
2019-04-20T00:42:34.025Z,4.70
2019-04-20T00:43:32.156Z,4.60
2019-04-20T00:44:31.665Z,6.70
2019-04-20T00:45:31.492Z,5.40
2019-04-20T00:46:35.686Z,5.00
2019-04-20T00:47:37.283Z,4.70
2019-04-20T00:48:40.444Z,3.60
2019-04-20T00:49:46.795Z,4.40
2019-04-20T00:50:46.958Z,4.60
2019-04-20T00:51:45.551Z,4.40
2019-04-20T00:52:41.237Z,3.50
2019-04-20T00:53:34.750Z,4.20
2019-04-20T00:54:28.458Z,3.10
2019-04-20T00:55:29.266Z,3.90
2019-04-20T00:56:28.815Z,4.10
2019-04-20T00:57:38.072Z,4.80
2019-04-20T00:58:35.981Z,4.00
2019-04-20T00:59:42.924Z,4.80
2019-04-20T01:00:54.294Z,4.60
2019-04-20T01:01:50.380Z,3.40
2019-04-20T01:02:41.920Z,3.90
2019-04-20T01:03:42.289Z,4.80
2019-04-20T01:04:50.712Z,4.40
2019-04-20T01:05:53.000Z,3.90
2019-04-20T01:06:43.806Z,4.60
2019-04-20T01:07:37.132Z,4.90
2019-04-20T01:08:29.527Z,4.00
2019-04-20T01:09:28.787Z,5.90
2019-04-20T01:10:37.069Z,3.40
2019-04-20T01:11:33.943Z,5.40
2019-04-20T01:12:31.736Z,4.10
2019-04-20T01:13:30.137Z,4.30
2019-04-20T01:14:36.112Z,3.60
2019-04-20T01:15:37.547Z,5.40
2019-04-20T01:16:41.193Z,4.70
2019-04-20T01:17:28.760Z,5.60
2019-04-20T01:18:28.760Z,7.10
2019-04-20T01:19:28.754Z,6.80
2019-04-20T01:20:28.750Z,6.00
2019-04-20T01:21:31.498Z,4.40
2019-04-20T01:22:30.568Z,4.50
2019-04-20T01:23:37.755Z,5.60
2019-04-20T01:24:34.959Z,4.70
2019-04-20T01:25:33.795Z,6.20
2019-04-20T01:26:29.407Z,3.40
2019-04-20T01:27:42.967Z,4.70
2019-04-20T01:28:46.353Z,6.50
2019-04-20T01:29:36.203Z,4.40
2019-04-20T01:30:36.176Z,4.70
2019-04-20T01:31:36.154Z,7.60
2019-04-20T01:32:49.235Z,7.10
2019-04-20T01:33:41.322Z,4.10
2019-04-20T01:34:44.045Z,5.00
2019-04-20T01:35:47.258Z,6.00
2019-04-20T01:36:46.174Z,5.00
2019-04-20T01:37:39.447Z,5.40
2019-04-20T01:38:44.706Z,4.20
2019-04-20T01:39:37.095Z,4.60
2019-04-20T01:40:29.530Z,6.00
2019-04-20T01:41:29.086Z,4.20
2019-04-20T01:42:30.037Z,6.70
2019-04-20T01:43:29.171Z,3.50
2019-04-20T01:44:35.654Z,4.90
2019-04-20T01:45:34.165Z,5.40
2019-04-20T01:46:30.485Z,4.50
2019-04-20T01:47:32.319Z,5.50
2019-04-20T01:48:34.040Z,4.90
2019-04-20T01:49:33.240Z,6.30
2019-04-20T01:50:33.292Z,4.70
2019-04-20T01:51:37.361Z,6.20
2019-04-20T01:52:43.828Z,5.90
2019-04-20T01:53:46.493Z,6.20
2019-04-20T01:54:48.187Z,6.60
2019-04-20T01:55:46.640Z,5.70
2019-04-20T01:56:40.375Z,3.50
2019-04-20T01:57:43.855Z,6.90
2019-04-20T01:58:49.169Z,4.80
2019-04-20T01:59:40.270Z,6.50
2019-04-20T02:00:34.411Z,5.00
2019-04-20T02:01:33.886Z,6.80
2019-04-20T02:02:29.555Z,6.60
2019-04-20T02:03:36.875Z,5.30
2019-04-20T02:04:34.403Z,5.40
2019-04-20T02:05:32.754Z,4.70
2019-04-20T02:06:30.955Z,6.30
2019-04-20T02:07:35.535Z,4.70
2019-04-20T02:08:29.918Z,5.00
2019-04-20T02:09:31.172Z,5.20
2019-04-20T02:10:36.945Z,5.50
2019-04-20T02:11:34.282Z,4.70
2019-04-20T02:12:34.166Z,4.60
2019-04-20T02:13:38.997Z,5.70
2019-04-20T02:14:37.763Z,5.60
2019-04-20T02:15:38.133Z,8.00
2019-04-20T02:16:37.275Z,5.30
2019-04-20T02:17:37.397Z,5.10
2019-04-20T02:18:40.000Z,4.50
2019-04-20T02:19:43.237Z,4.10
2019-04-20T02:20:48.577Z,6.30
2019-04-20T02:21:49.755Z,5.20
2019-04-20T02:22:48.305Z,5.60
2019-04-20T02:23:38.718Z,5.10
2019-04-20T02:24:29.976Z,4.40
2019-04-20T02:25:31.045Z,6.90
2019-04-20T02:26:30.227Z,6.20
2019-04-20T02:27:36.713Z,5.20
2019-04-20T02:28:56.859Z,5.30
2019-04-20T02:29:57.052Z,5.30
2019-04-20T02:31:06.538Z,6.60
2019-04-20T02:32:10.300Z,5.20
2019-04-20T02:33:10.160Z,5.30
2019-04-20T02:34:03.969Z,5.70
2019-04-20T02:34:59.428Z,5.00
2019-04-20T02:38:15.246Z,5.70
2019-04-20T02:39:23.902Z,6.00
2019-04-20T02:40:00.854Z,5.10
2019-04-20T02:42:20.089Z,5.80
2019-04-20T02:43:21.648Z,7.70
2019-04-20T02:45:11.192Z,4.70
2019-04-20T02:46:14.944Z,5.10
2019-04-20T02:47:11.644Z,5.70
2019-04-20T02:48:01.014Z,6.50
2019-04-20T02:49:10.584Z,4.80
2019-04-20T02:49:56.681Z,5.00
2019-04-20T02:51:01.145Z,5.90
2019-04-20T02:53:05.927Z,6.10
2019-04-20T02:54:13.651Z,5.20
2019-04-20T02:55:09.252Z,5.00
2019-04-20T02:56:04.330Z,5.30
2019-04-20T02:58:05.269Z,7.30
2019-04-20T02:59:17.155Z,5.40
2019-04-20T03:00:05.598Z,7.40
2019-04-20T03:00:52.724Z,5.50
2019-04-20T03:01:51.741Z,4.90
2019-04-20T03:02:45.069Z,6.90
2019-04-20T03:03:36.529Z,5.50
2019-04-20T03:04:41.133Z,5.20
2019-04-20T03:05:42.436Z,4.70
2019-04-20T03:06:39.750Z,6.20
2019-04-20T03:07:50.448Z,5.60
2019-04-20T03:08:53.251Z,6.20
2019-04-20T03:09:50.123Z,7.60
2019-04-20T03:11:00.733Z,6.00
2019-04-20T03:11:58.287Z,6.50
2019-04-20T03:12:50.735Z,8.00
2019-04-20T03:13:50.220Z,6.70
2019-04-20T03:14:50.313Z,4.60
2019-04-20T03:15:48.152Z,6.90
2019-04-20T03:16:51.826Z,4.70
2019-04-20T03:17:51.315Z,5.00
2019-04-20T03:18:44.581Z,5.30
2019-04-20T03:19:46.377Z,4.70
2019-04-20T03:20:52.789Z,6.70
2019-04-20T03:21:52.878Z,7.40
2019-04-20T03:23:11.725Z,8.70
2019-04-20T03:24:02.104Z,7.40
2019-04-20T03:24:53.959Z,5.40
2019-04-20T03:25:55.554Z,7.30
2019-04-20T03:26:53.603Z,7.60
2019-04-20T03:27:46.119Z,6.20
2019-04-20T03:28:44.087Z,6.60
2019-04-20T03:29:52.588Z,7.30
2019-04-20T03:31:24.632Z,7.40
2019-04-20T03:32:15.461Z,6.70
2019-04-20T03:34:13.270Z,5.40
2019-04-20T03:35:05.585Z,4.90
2019-04-20T03:35:58.688Z,5.40
2019-04-20T03:37:04.682Z,7.90
2019-04-20T03:37:52.457Z,5.80
2019-04-20T03:38:47.995Z,6.40
2019-04-20T03:39:46.751Z,5.40
2019-04-20T03:40:45.273Z,5.70
2019-04-20T03:41:36.742Z,5.10
2019-04-20T03:42:30.989Z,8.20
2019-04-20T03:43:31.006Z,14.70
2019-04-20T03:44:34.207Z,8.30
2019-04-20T03:45:39.219Z,7.00
2019-04-20T03:46:40.734Z,4.70
2019-04-20T03:47:42.583Z,5.80
2019-04-20T03:48:46.825Z,5.60
2019-04-20T03:49:56.030Z,5.90
2019-04-20T03:50:50.416Z,6.10
2019-04-20T03:51:53.326Z,6.90
2019-04-20T03:52:51.326Z,7.60
2019-04-20T03:53:43.402Z,6.90
2019-04-20T03:54:43.383Z,6.60
2019-04-20T03:55:48.988Z,7.00
2019-04-20T03:56:46.259Z,7.30
2019-04-20T03:57:52.960Z,7.80
2019-04-20T03:58:47.077Z,7.70
2019-04-20T03:59:50.895Z,9.90
2019-04-20T04:00:50.788Z,7.00
2019-04-20T04:02:17.061Z,8.20
2019-04-20T04:03:03.514Z,6.10
2019-04-20T04:03:53.553Z,8.00
2019-04-20T04:04:49.623Z,7.90
2019-04-20T04:05:48.131Z,6.10
2019-04-20T04:06:41.621Z,7.20
2019-04-20T04:07:39.719Z,7.10
2019-04-20T04:08:38.989Z,7.00
2019-04-20T04:09:39.807Z,6.50
2019-04-20T04:10:50.523Z,8.90
2019-04-20T04:11:44.508Z,9.40
2019-04-20T04:12:37.993Z,5.90
2019-04-20T04:13:31.558Z,7.80
2019-04-20T04:14:32.490Z,7.80
2019-04-20T04:15:31.707Z,8.90
2019-04-20T04:16:37.238Z,7.10
2019-04-20T04:17:36.829Z,7.50
2019-04-20T04:18:38.460Z,8.90
2019-04-20T04:19:36.584Z,6.50
2019-04-20T04:20:39.743Z,6.90
2019-04-20T04:21:50.101Z,6.60
2019-04-20T04:22:50.250Z,7.70
2019-04-20T04:23:48.699Z,7.10
2019-04-20T04:24:39.972Z,9.00
2019-04-20T04:25:47.532Z,10.30
2019-04-20T04:26:47.935Z,8.20
2019-04-20T04:27:48.313Z,9.10
2019-04-20T04:28:51.956Z,7.30
2019-04-20T04:29:51.271Z,9.20
2019-04-20T04:30:53.376Z,9.80
2019-04-20T04:32:00.349Z,7.20
2019-04-20T04:33:09.062Z,7.70
2019-04-20T04:33:56.943Z,8.00
2019-04-20T04:34:48.648Z,12.00
2019-04-20T04:35:48.197Z,7.20
2019-04-20T04:36:57.640Z,7.50
2019-04-20T04:37:50.307Z,10.00
2019-04-20T04:38:53.479Z,8.10
2019-04-20T04:39:54.089Z,9.10
2019-04-20T04:41:06.465Z,8.20
2019-04-20T04:42:01.867Z,8.70
2019-04-20T04:42:52.510Z,5.90
2019-04-20T04:43:49.862Z,6.70
2019-04-20T04:44:44.705Z,8.50
2019-04-20T04:45:33.379Z,7.80
2019-04-20T04:46:33.963Z,7.80
2019-04-20T04:47:32.620Z,8.00
2019-04-20T04:48:36.675Z,9.50
2019-04-20T04:49:36.878Z,7.60
2019-04-20T04:50:33.167Z,8.10
2019-04-20T04:51:43.826Z,8.20
2019-04-20T04:52:42.909Z,8.60
2019-04-20T04:53:44.291Z,8.80
2019-04-20T04:54:42.262Z,7.10
2019-04-20T04:55:41.671Z,8.40
2019-04-20T04:56:33.528Z,6.40
2019-04-20T04:57:32.643Z,8.00
2019-04-20T04:58:32.138Z,9.00
2019-04-20T04:59:32.165Z,17.80
2019-04-20T05:00:33.975Z,6.90
2019-04-20T05:01:34.406Z,9.80
2019-04-20T05:02:38.046Z,8.00
2019-04-20T05:03:58.194Z,6.90
2019-04-20T05:04:58.941Z,7.00
2019-04-20T05:05:51.852Z,10.90
2019-04-20T05:06:45.790Z,7.30
2019-04-20T05:07:43.556Z,8.20
2019-04-20T05:08:39.642Z,8.20
2019-04-20T05:09:32.324Z,8.30
2019-04-20T05:10:32.977Z,7.90
2019-04-20T05:11:32.398Z,8.10
2019-04-20T05:12:34.978Z,8.70
2019-04-20T05:13:41.892Z,7.40
2019-04-20T05:14:45.126Z,8.00
2019-04-20T05:16:50.099Z,8.90
2019-04-20T05:17:53.221Z,7.50
2019-04-20T05:18:57.973Z,8.40
2019-04-20T05:19:55.285Z,10.90
2019-04-20T05:20:54.715Z,8.10
2019-04-20T05:21:58.726Z,10.00
2019-04-20T05:22:45.728Z,12.70
2019-04-20T05:23:46.166Z,9.10
2019-04-20T05:24:48.148Z,11.50
2019-04-20T05:25:56.988Z,11.90
2019-04-20T05:26:57.928Z,9.80
2019-04-20T05:27:52.410Z,9.80
2019-04-20T05:28:43.937Z,7.20
2019-04-20T05:29:34.962Z,10.10
2019-04-20T05:30:39.523Z,10.50
2019-04-20T05:31:41.409Z,8.10
2019-04-20T05:32:44.082Z,8.00
2019-04-20T05:33:57.152Z,9.60
2019-04-20T05:35:02.487Z,12.60
2019-04-20T05:35:58.887Z,8.30
2019-04-20T05:36:53.096Z,8.60
2019-04-20T05:38:05.138Z,9.60
2019-04-20T05:38:54.378Z,8.80
2019-04-20T05:39:54.688Z,11.80
2019-04-20T05:40:51.382Z,8.40
2019-04-20T05:41:48.279Z,10.70
2019-04-20T05:42:52.618Z,10.60
2019-04-20T05:43:46.808Z,9.80
2019-04-20T05:44:55.700Z,9.90
2019-04-20T05:45:45.100Z,9.10
2019-04-20T05:46:56.870Z,10.10
2019-04-20T05:47:48.374Z,10.60
2019-04-20T05:49:00.225Z,9.60
2019-04-20T05:49:50.087Z,14.20
2019-04-20T05:50:53.165Z,10.90
2019-04-20T05:52:18.554Z,9.70
2019-04-20T05:52:59.858Z,12.50
2019-04-20T05:53:50.351Z,10.80
2019-04-20T05:54:58.437Z,12.00
2019-04-20T05:55:53.288Z,11.70
2019-04-20T05:56:55.123Z,7.90
2019-04-20T05:57:58.003Z,9.00
2019-04-20T05:58:49.593Z,12.40
2019-04-20T05:59:55.692Z,10.40
2019-04-20T06:00:57.061Z,10.90
2019-04-20T06:02:00.447Z,9.60
2019-04-20T06:02:53.938Z,11.20
2019-04-20T06:03:48.785Z,11.90
2019-04-20T06:05:57.880Z,10.50
2019-04-20T06:06:58.187Z,11.30
2019-04-20T06:07:54.783Z,13.70
2019-04-20T06:08:53.757Z,11.40
2019-04-20T06:09:54.542Z,10.20
2019-04-20T06:10:56.347Z,9.40
2019-04-20T06:12:07.490Z,13.20
2019-04-20T06:12:52.977Z,11.80
2019-04-20T06:13:47.167Z,10.30
2019-04-20T06:14:48.249Z,11.30
2019-04-20T06:15:54.838Z,10.00
2019-04-20T06:16:55.778Z,10.80
2019-04-20T06:17:52.832Z,9.70
2019-04-20T06:18:47.035Z,10.70
2019-04-20T06:19:57.925Z,10.60
2019-04-20T06:20:52.546Z,11.30
2019-04-20T06:21:57.485Z,13.60
2019-04-20T06:22:56.296Z,13.50
2019-04-20T06:23:56.700Z,12.20
2019-04-20T06:25:15.038Z,12.70
2019-04-20T06:26:04.078Z,10.70
2019-04-20T06:27:57.151Z,9.70
2019-04-20T06:28:46.546Z,12.70
2019-04-20T06:29:51.381Z,10.90
2019-04-20T06:30:51.120Z,14.10
2019-04-20T06:31:53.464Z,10.70
2019-04-20T06:32:52.008Z,9.30
2019-04-20T06:34:08.823Z,10.00
2019-04-20T06:34:53.752Z,9.30
2019-04-20T06:36:07.641Z,13.10
2019-04-20T06:36:55.825Z,8.70
2019-04-20T06:38:00.610Z,11.70
2019-04-20T06:39:02.533Z,11.10
2019-04-20T06:39:55.950Z,12.10
2019-04-20T06:41:13.990Z,10.30
2019-04-20T06:42:08.361Z,12.50
2019-04-20T06:42:58.634Z,12.20
2019-04-20T06:44:50.858Z,9.30
2019-04-20T06:47:05.587Z,10.50
2019-04-20T06:48:01.099Z,9.10
2019-04-20T06:48:58.716Z,11.70
2019-04-20T06:49:54.834Z,9.90
2019-04-20T06:50:49.263Z,13.80
2019-04-20T06:51:52.760Z,10.40
2019-04-20T06:52:55.665Z,8.90
2019-04-20T06:53:49.925Z,11.20
2019-04-20T06:54:48.683Z,10.70
2019-04-20T06:56:04.286Z,9.10
2019-04-20T06:56:54.575Z,11.20
2019-04-20T06:57:55.068Z,8.60
2019-04-20T06:59:01.762Z,11.90
2019-04-20T06:59:57.332Z,10.80
2019-04-20T07:00:56.359Z,10.40
2019-04-20T07:02:17.201Z,8.50
2019-04-20T07:02:54.372Z,13.30
2019-04-20T07:04:57.589Z,9.90
2019-04-20T07:06:06.367Z,9.60
2019-04-20T07:07:02.382Z,10.90
2019-04-20T07:08:00.799Z,13.20
2019-04-20T07:09:01.776Z,12.10
2019-04-20T07:10:09.838Z,10.80
2019-04-20T07:11:02.246Z,12.60
2019-04-20T07:11:50.500Z,12.40
2019-04-20T07:12:49.317Z,9.50
2019-04-20T07:13:46.100Z,10.50
2019-04-20T07:14:46.962Z,12.40
2019-04-20T07:15:49.415Z,10.20
2019-04-20T07:16:51.171Z,10.20
2019-04-20T07:17:57.799Z,11.10
2019-04-20T07:18:55.209Z,10.30
2019-04-20T07:19:53.903Z,12.50
2019-04-20T07:21:03.783Z,12.10
2019-04-20T07:23:09.453Z,10.20
2019-04-20T07:24:04.778Z,11.20
2019-04-20T07:24:56.845Z,12.90
2019-04-20T07:25:54.256Z,10.40
2019-04-20T07:26:55.461Z,13.30
2019-04-20T07:27:53.697Z,15.10
2019-04-20T07:29:01.925Z,14.00
2019-04-20T07:29:59.007Z,10.20
2019-04-20T07:30:57.952Z,10.70
2019-04-20T07:31:49.998Z,12.00
2019-04-20T07:33:10.476Z,9.80
2019-04-20T07:33:56.790Z,14.90
2019-04-20T07:34:55.720Z,12.60
2019-04-20T07:35:50.808Z,9.50
2019-04-20T07:37:22.017Z,11.70
2019-04-20T07:38:59.743Z,10.30
2019-04-20T07:40:04.297Z,11.00
2019-04-20T07:40:56.179Z,11.90
2019-04-20T07:42:00.680Z,12.80
2019-04-20T07:42:55.286Z,13.30
2019-04-20T07:44:03.413Z,11.00
2019-04-20T07:45:01.244Z,10.90
2019-04-20T07:45:56.910Z,13.70
2019-04-20T07:47:02.833Z,11.80
2019-04-20T07:48:01.758Z,14.10
2019-04-20T07:48:54.311Z,11.40
2019-04-20T07:49:52.620Z,13.50
2019-04-20T07:50:49.571Z,10.70
2019-04-20T07:51:39.081Z,13.90
2019-04-20T07:52:46.234Z,9.80
2019-04-20T07:53:57.544Z,10.30
2019-04-20T07:55:19.267Z,10.80
2019-04-20T07:55:58.169Z,10.20
2019-04-20T07:56:57.623Z,11.20
2019-04-20T07:57:52.849Z,12.40
2019-04-20T07:58:44.240Z,8.70
2019-04-20T07:59:55.955Z,12.50
2019-04-20T08:01:05.740Z,12.20
2019-04-20T08:02:04.336Z,9.80
2019-04-20T08:02:58.680Z,11.50
2019-04-20T08:03:55.697Z,12.20
2019-04-20T08:04:52.408Z,11.50
2019-04-20T08:05:46.601Z,15.20
2019-04-20T08:06:45.429Z,12.90
2019-04-20T08:07:45.270Z,12.20
2019-04-20T08:08:53.073Z,15.40
2019-04-20T08:09:43.837Z,10.70
2019-04-20T08:10:54.279Z,12.30
2019-04-20T08:12:02.466Z,13.10
2019-04-20T08:13:02.186Z,13.00
2019-04-20T08:14:01.996Z,11.40
2019-04-20T08:15:05.307Z,13.20
2019-04-20T08:17:13.808Z,13.90
2019-04-20T08:17:59.943Z,11.60
2019-04-20T08:18:55.761Z,13.30
2019-04-20T08:19:50.846Z,12.90
2019-04-20T08:20:57.968Z,10.40
2019-04-20T08:21:57.077Z,10.20
2019-04-20T08:22:58.648Z,15.00
2019-04-20T08:23:55.567Z,13.50
2019-04-20T08:24:52.238Z,11.30
2019-04-20T08:25:46.788Z,11.90
2019-04-20T08:26:45.402Z,12.70
2019-04-20T08:27:36.344Z,11.00
2019-04-20T08:28:46.507Z,14.20
2019-04-20T08:29:48.364Z,11.00
2019-04-20T08:30:53.256Z,13.30
2019-04-20T08:31:55.987Z,16.10
2019-04-20T08:32:50.618Z,14.10
2019-04-20T08:34:07.760Z,13.00
2019-04-20T08:35:02.264Z,11.50
2019-04-20T08:36:02.808Z,12.30
2019-04-20T08:36:56.678Z,13.70
2019-04-20T08:38:19.968Z,15.80
2019-04-20T08:39:15.056Z,12.40
2019-04-20T08:40:05.466Z,13.80
2019-04-20T08:40:54.919Z,12.90
2019-04-20T08:41:56.381Z,12.00
2019-04-20T08:43:02.484Z,10.00
2019-04-20T08:44:06.433Z,12.80
2019-04-20T08:46:01.838Z,13.10
2019-04-20T08:47:06.121Z,10.90
2019-04-20T08:48:05.063Z,12.60
2019-04-20T08:48:56.820Z,15.60
2019-04-20T08:50:03.495Z,13.50
2019-04-20T08:51:02.358Z,14.60
2019-04-20T08:52:08.280Z,14.80
2019-04-20T08:53:12.354Z,15.50
2019-04-20T08:53:57.047Z,12.40
2019-04-20T08:54:57.806Z,12.00
2019-04-20T08:55:49.086Z,14.10
2019-04-20T08:56:44.827Z,14.40
2019-04-20T08:57:37.918Z,12.80
2019-04-20T08:58:37.056Z,14.50
2019-04-20T08:59:40.104Z,13.50
2019-04-20T09:00:45.660Z,13.00
2019-04-20T09:01:37.771Z,14.00
2019-04-20T09:02:40.616Z,12.80
2019-04-20T09:03:46.193Z,12.20
2019-04-20T09:04:45.036Z,15.30
2019-04-20T09:05:48.981Z,14.60
2019-04-20T09:06:54.633Z,12.50
2019-04-20T09:07:49.008Z,14.40
2019-04-20T09:08:50.687Z,11.10
2019-04-20T09:10:00.859Z,9.50
2019-04-20T09:10:56.847Z,14.10
2019-04-20T09:11:54.317Z,11.20
2019-04-20T09:12:54.177Z,10.80
2019-04-20T09:13:43.245Z,10.10
2019-04-20T09:14:39.443Z,12.60
2019-04-20T09:15:38.335Z,11.10
2019-04-20T09:16:44.288Z,13.10
2019-04-20T09:17:45.161Z,11.70
2019-04-20T09:18:47.680Z,11.00
2019-04-20T09:19:47.045Z,14.00
2019-04-20T09:20:47.517Z,16.00
2019-04-20T09:21:46.251Z,12.20
2019-04-20T09:22:51.888Z,11.30
2019-04-20T09:23:50.753Z,11.80
2019-04-20T09:24:57.638Z,11.80
2019-04-20T09:26:10.387Z,11.20
2019-04-20T09:26:54.565Z,14.90
2019-04-20T09:27:43.571Z,9.30
2019-04-20T09:28:47.943Z,10.50
2019-04-20T09:29:54.603Z,14.30
2019-04-20T09:30:47.724Z,10.00
2019-04-20T09:31:56.147Z,10.40
2019-04-20T09:32:56.605Z,13.90
2019-04-20T09:34:00.416Z,9.60
2019-04-20T09:35:16.072Z,10.20
2019-04-20T09:35:53.562Z,10.10
2019-04-20T09:36:49.327Z,11.60
2019-04-20T09:37:54.385Z,10.90
2019-04-20T09:38:51.570Z,13.10
2019-04-20T09:40:00.885Z,10.00
2019-04-20T09:40:57.172Z,9.10
2019-04-20T09:41:58.901Z,11.90
2019-04-20T09:42:38.076Z,12.70
2019-04-20T09:43:38.981Z,8.90
2019-04-20T09:44:43.419Z,9.10
2019-04-20T09:45:43.954Z,10.80
2019-04-20T09:46:45.277Z,10.80
2019-04-20T09:47:43.544Z,12.50
2019-04-20T09:48:42.777Z,8.50
2019-04-20T09:49:48.117Z,11.80
2019-04-20T09:50:55.394Z,10.30
2019-04-20T09:51:56.391Z,9.70
2019-04-20T09:53:01.500Z,10.60
2019-04-20T09:53:48.218Z,10.30
2019-04-20T09:54:56.361Z,8.70
2019-04-20T09:55:59.212Z,10.30
2019-04-20T09:57:00.649Z,8.80
2019-04-20T09:59:01.297Z,12.60
2019-04-20T09:59:57.521Z,11.40
2019-04-20T10:00:54.097Z,8.10
2019-04-20T10:01:45.334Z,8.00
2019-04-20T10:02:39.903Z,8.90
2019-04-20T10:03:38.789Z,7.20
2019-04-20T10:04:39.692Z,5.90
2019-04-20T10:05:38.529Z,11.20
2019-04-20T10:06:39.412Z,8.00
2019-04-20T10:07:40.177Z,9.70
2019-04-20T10:08:43.589Z,7.90
2019-04-20T10:09:43.538Z,7.50
2019-04-20T10:10:42.043Z,10.40
2019-04-20T10:11:41.790Z,12.90
2019-04-20T10:12:39.742Z,8.10
2019-04-20T10:13:38.715Z,9.10
2019-04-20T10:14:38.741Z,9.30
2019-04-20T10:15:39.616Z,7.70
2019-04-20T10:16:39.938Z,6.90
2019-04-20T10:17:38.817Z,7.10
2019-04-20T10:18:43.785Z,8.20
2019-04-20T10:19:40.077Z,8.30
2019-04-20T10:20:41.417Z,7.00
2019-04-20T10:21:38.912Z,10.20
2019-04-20T10:22:38.936Z,6.90
2019-04-20T10:23:38.962Z,9.10
2019-04-20T10:24:38.986Z,7.50
2019-04-20T10:25:40.336Z,9.80
2019-04-20T10:26:39.043Z,5.40
2019-04-20T10:27:41.783Z,7.90
2019-04-20T10:28:39.436Z,7.40
2019-04-20T10:29:39.717Z,5.80
2019-04-20T10:30:39.148Z,5.40
2019-04-20T10:31:46.607Z,11.50
2019-04-20T10:32:43.043Z,8.00
2019-04-20T10:33:39.617Z,7.70
2019-04-20T10:34:39.260Z,7.20
2019-04-20T10:35:39.453Z,6.90
2019-04-20T10:36:39.578Z,8.20
2019-04-20T10:37:39.767Z,7.10
2019-04-20T10:38:40.206Z,7.10
2019-04-20T10:39:40.426Z,6.80
2019-04-20T10:40:51.222Z,5.70
2019-04-20T10:41:48.586Z,6.50
2019-04-20T10:42:39.498Z,6.90
2019-04-20T10:43:40.677Z,7.40
2019-04-20T10:44:40.889Z,7.80
2019-04-20T10:45:39.595Z,9.40
2019-04-20T10:46:40.692Z,8.30
2019-04-20T10:47:41.016Z,8.90
2019-04-20T10:48:45.932Z,8.20
2019-04-20T10:49:40.761Z,5.50
2019-04-20T10:50:40.833Z,7.70
2019-04-20T10:51:39.994Z,7.40
2019-04-20T10:52:39.838Z,7.20
2019-04-20T10:53:40.389Z,8.70
2019-04-20T10:54:40.611Z,8.70
2019-04-20T10:55:39.982Z,7.50
2019-04-20T10:56:41.393Z,8.50
2019-04-20T10:57:40.044Z,8.10
2019-04-20T10:58:40.154Z,8.10
2019-04-20T10:59:41.446Z,6.30
2019-04-20T11:00:40.095Z,7.60
2019-04-20T11:01:40.138Z,7.10
2019-04-20T11:02:42.598Z,7.40
2019-04-20T11:03:40.694Z,9.30
2019-04-20T11:04:40.895Z,6.20
2019-04-20T11:05:40.350Z,9.90
2019-04-20T11:06:40.587Z,8.00
2019-04-20T11:07:40.801Z,7.20
2019-04-20T11:08:40.470Z,7.20
2019-04-20T11:09:40.747Z,8.60
2019-04-20T11:10:51.116Z,7.30
2019-04-20T11:11:40.707Z,9.00
2019-04-20T11:12:40.518Z,6.10
2019-04-20T11:13:41.448Z,9.10
2019-04-20T11:14:43.553Z,7.60
2019-04-20T11:15:40.625Z,8.20
2019-04-20T11:16:40.659Z,7.80
2019-04-20T11:17:41.677Z,10.10
2019-04-20T11:18:40.730Z,5.70
2019-04-20T11:19:41.140Z,7.30
2019-04-20T11:20:41.484Z,7.40
2019-04-20T11:21:40.878Z,6.90
2019-04-20T11:22:42.126Z,7.90
2019-04-20T11:23:40.914Z,11.30
2019-04-20T11:24:40.949Z,6.40
2019-04-20T11:25:42.075Z,6.90
2019-04-20T11:26:42.289Z,7.30
2019-04-20T11:27:41.061Z,6.10
2019-04-20T11:28:42.032Z,6.10
2019-04-20T11:29:42.158Z,9.00
2019-04-20T11:30:41.173Z,8.80
2019-04-20T11:31:46.392Z,6.80
2019-04-20T11:32:42.181Z,6.40
2019-04-20T11:33:42.426Z,8.00
2019-04-20T11:34:42.514Z,6.80
2019-04-20T11:35:43.280Z,6.70
2019-04-20T11:36:41.400Z,10.00
2019-04-20T11:37:42.795Z,11.10
2019-04-20T11:38:42.743Z,7.90
2019-04-20T11:39:41.510Z,7.30
2019-04-20T11:40:42.282Z,7.40
2019-04-20T11:41:41.592Z,7.70
2019-04-20T11:42:41.698Z,7.00
2019-04-20T11:43:41.952Z,7.70
2019-04-20T11:44:42.447Z,5.50
2019-04-20T11:45:42.712Z,8.20
2019-04-20T11:46:42.812Z,6.50
2019-04-20T11:47:43.166Z,6.40
2019-04-20T11:48:41.914Z,6.00
2019-04-20T11:49:41.902Z,6.90
2019-04-20T11:50:43.305Z,8.50
2019-04-20T11:51:41.982Z,8.50
2019-04-20T11:52:45.846Z,6.40
2019-04-20T11:53:42.720Z,8.00
2019-04-20T11:54:42.258Z,6.70
2019-04-20T11:55:42.350Z,10.80
2019-04-20T11:56:45.138Z,5.60
2019-04-20T11:57:43.145Z,8.50
2019-04-20T11:58:42.804Z,9.80
2019-04-20T11:59:43.143Z,8.20
2019-04-20T12:00:52.213Z,6.80
2019-04-20T12:01:49.352Z,6.80
2019-04-20T12:02:44.370Z,5.10
2019-04-20T12:03:52.975Z,7.40
2019-04-20T12:04:49.221Z,6.60
2019-04-20T12:05:46.627Z,9.40
2019-04-20T12:06:43.304Z,9.20
2019-04-20T12:07:42.720Z,5.80
2019-04-20T12:08:43.870Z,8.50
2019-04-20T12:09:43.735Z,8.20
2019-04-20T12:10:44.712Z,7.70
2019-04-20T12:11:56.214Z,9.50
2019-04-20T12:12:47.875Z,7.90
2019-04-20T12:13:42.817Z,5.90
2019-04-20T12:14:42.949Z,7.80
2019-04-20T12:15:43.429Z,5.80
2019-04-20T12:16:43.754Z,6.90
2019-04-20T12:17:43.903Z,9.10
2019-04-20T12:18:44.239Z,7.80
2019-04-20T12:19:43.855Z,6.40
2019-04-20T12:20:43.025Z,8.40
2019-04-20T12:21:43.063Z,6.20
2019-04-20T12:22:44.214Z,8.40
2019-04-20T12:23:44.433Z,9.50
2019-04-20T12:24:44.428Z,10.70
2019-04-20T12:25:44.615Z,9.00
2019-04-20T12:26:43.246Z,7.80
2019-04-20T12:27:50.742Z,7.10
2019-04-20T12:28:43.391Z,5.70
2019-04-20T12:29:43.632Z,6.00
2019-04-20T12:30:43.894Z,7.20
2019-04-20T12:31:50.060Z,7.50
2019-04-20T12:32:50.464Z,7.40
2019-04-20T12:33:44.313Z,6.60
2019-04-20T12:34:43.543Z,5.40
2019-04-20T12:35:44.490Z,7.60
2019-04-20T12:36:44.805Z,6.70
2019-04-20T12:37:45.037Z,6.50
2019-04-20T12:38:43.692Z,6.90
2019-04-20T12:39:44.879Z,7.50
2019-04-20T12:40:44.053Z,8.80
2019-04-20T12:41:50.487Z,8.10
2019-04-20T12:42:44.232Z,9.30
2019-04-20T12:43:43.905Z,8.70
2019-04-20T12:44:43.919Z,6.80
2019-04-20T12:45:44.136Z,6.40
2019-04-20T12:46:43.988Z,6.00
2019-04-20T12:47:46.550Z,8.20
2019-04-20T12:48:44.062Z,6.60
2019-04-20T12:49:45.405Z,7.80
2019-04-20T12:50:44.134Z,7.90
2019-04-20T12:51:50.640Z,7.50
2019-04-20T12:52:44.273Z,9.80
2019-04-20T12:53:44.533Z,7.80
2019-04-20T12:54:45.132Z,7.50
2019-04-20T12:55:44.420Z,8.10
2019-04-20T12:56:44.651Z,7.80
2019-04-20T12:57:44.779Z,9.20
2019-04-20T12:58:45.157Z,8.90
2019-04-20T12:59:46.093Z,6.80
2019-04-20T13:00:45.758Z,9.70
2019-04-20T13:01:44.518Z,5.90
2019-04-20T13:02:45.322Z,7.00
2019-04-20T13:03:45.579Z,8.80
2019-04-20T13:04:45.706Z,7.50
2019-04-20T13:05:45.744Z,6.70
2019-04-20T13:06:44.733Z,9.30
2019-04-20T13:07:48.203Z,6.80
2019-04-20T13:08:51.195Z,6.30
2019-04-20T13:09:44.772Z,8.60
2019-04-20T13:10:44.803Z,6.10
2019-04-20T13:11:52.806Z,8.00
2019-04-20T13:12:44.863Z,6.90
2019-04-20T13:13:46.136Z,6.10
2019-04-20T13:14:44.920Z,7.20
2019-04-20T13:15:44.950Z,6.70
2019-04-20T13:16:48.327Z,5.40
2019-04-20T13:17:46.498Z,6.80
2019-04-20T13:18:45.458Z,11.00
2019-04-20T13:19:45.145Z,8.30
2019-04-20T13:20:45.867Z,7.50
2019-04-20T13:21:45.194Z,7.80
2019-04-20T13:22:45.149Z,7.10
2019-04-20T13:23:45.176Z,7.80
2019-04-20T13:24:45.293Z,5.30
2019-04-20T13:25:45.443Z,6.60
2019-04-20T13:26:45.264Z,5.60
2019-04-20T13:27:45.287Z,6.70
2019-04-20T13:28:46.432Z,8.00